Time;durP1;ratioP1;P1;durP2;ratioP2;P2;SDS_P1;SDS_P2;PMS_P1;PMS_P2;Temp;Humidity;BMP_temperature;BMP_pressure;BME280_temperature;BME280_humidity;BME280_pressure;Samples;Min_cycle;Max_cycle;Signal;HPM_P1;HPM_P2
2022/03/09 00:01:03;;;;;;;7.35;4.85;;;1.90;99.90;;;;;;4910106;29;20449;-83
2022/03/09 00:03:31;;;;;;;6.03;5.13;;;1.90;99.90;;;;;;4907670;29;20198;-83
2022/03/09 00:05:59;;;;;;;10.15;6.53;;;1.80;99.90;;;;;;4908131;29;20218;-85
2022/03/09 00:08:27;;;;;;;9.30;5.90;;;1.80;99.90;;;;;;4893956;29;20298;-83
2022/03/09 00:10:55;;;;;;;7.72;6.00;;;1.70;99.90;;;;;;4888930;29;20501;-83
2022/03/09 00:13:27;;;;;;;9.85;6.05;;;1.70;99.90;;;;;;4901778;29;20198;-84
2022/03/09 00:15:55;;;;;;;7.15;5.70;;;1.70;99.90;;;;;;4912057;29;20246;-83
2022/03/09 00:18:23;;;;;;;6.45;5.85;;;1.60;99.90;;;;;;4895263;29;20226;-82
2022/03/09 00:20:51;;;;;;;11.25;6.50;;;1.60;99.90;;;;;;4892214;29;20204;-82
2022/03/09 00:23:19;;;;;;;8.90;6.43;;;1.60;99.90;;;;;;4905618;29;20245;-82
2022/03/09 00:25:47;;;;;;;11.20;5.65;;;1.50;99.90;;;;;;4911105;29;20246;-82
2022/03/09 00:28:14;;;;;;;8.15;6.65;;;1.50;99.90;;;;;;4913966;29;20297;-82
2022/03/09 00:30:44;;;;;;;8.25;5.70;;;1.40;99.90;;;;;;4914185;29;20305;-82
2022/03/09 00:33:14;;;;;;;7.35;5.55;;;1.40;99.90;;;;;;4914652;29;20202;-82
2022/03/09 00:35:44;;;;;;;8.70;5.93;;;1.40;99.90;;;;;;4913057;29;20256;-81
2022/03/09 00:38:12;;;;;;;11.18;6.05;;;1.40;99.90;;;;;;4914742;29;20301;-82
2022/03/09 00:40:40;;;;;;;9.30;6.57;;;1.40;99.90;;;;;;4914372;29;20209;-82
2022/03/09 00:43:08;;;;;;;6.22;5.63;;;1.40;99.90;;;;;;4912277;29;20230;-84
2022/03/09 00:45:41;;;;;;;8.25;6.55;;;1.40;99.90;;;;;;4911745;29;20237;-83
2022/03/09 00:48:11;;;;;;;11.82;7.13;;;1.30;99.90;;;;;;4910395;29;20741;-81
2022/03/09 00:50:39;;;;;;;6.88;6.03;;;1.30;99.90;;;;;;4910851;29;20233;-83
2022/03/09 00:53:07;;;;;;;7.65;6.35;;;1.30;99.90;;;;;;4910869;29;20202;-83
2022/03/09 00:55:38;;;;;;;6.45;5.65;;;1.30;99.90;;;;;;4912756;29;20241;-81
2022/03/09 00:58:06;;;;;;;9.38;6.93;;;1.20;99.90;;;;;;4912277;29;20277;-83
2022/03/09 01:00:34;;;;;;;10.23;5.10;;;1.20;99.90;;;;;;4913766;29;20239;-81
2022/03/09 01:03:02;;;;;;;7.20;5.43;;;1.20;99.90;;;;;;4910630;29;20215;-82
2022/03/09 01:05:32;;;;;;;9.63;5.78;;;1.20;99.90;;;;;;4910958;29;20827;-82
2022/03/09 01:08:00;;;;;;;6.53;4.93;;;1.10;99.90;;;;;;4911344;29;20209;-83
2022/03/09 01:10:28;;;;;;;8.32;6.45;;;1.10;99.90;;;;;;4911160;29;20194;-82
2022/03/09 01:12:56;;;;;;;11.40;6.65;;;1.10;99.90;;;;;;4911452;29;20418;-83
2022/03/09 01:15:24;;;;;;;8.43;6.43;;;1.10;99.90;;;;;;4911168;29;20222;-82
2022/03/09 01:17:52;;;;;;;7.70;5.57;;;1.00;99.90;;;;;;4910770;29;20240;-81
2022/03/09 01:20:20;;;;;;;9.80;6.43;;;1.00;99.90;;;;;;4910209;29;20220;-81
2022/03/09 01:22:52;;;;;;;9.45;5.95;;;1.00;99.90;;;;;;4911166;29;20224;-82
2022/03/09 01:25:20;;;;;;;9.60;5.90;;;0.90;99.90;;;;;;4909487;29;20210;-82
2022/03/09 01:27:50;;;;;;;9.52;5.93;;;0.90;99.90;;;;;;4911322;29;20218;-81
2022/03/09 01:30:20;;;;;;;8.57;5.93;;;0.90;99.90;;;;;;4911283;29;20206;-82
2022/03/09 01:32:49;;;;;;;9.07;6.20;;;0.90;99.90;;;;;;4910903;29;20214;-82
2022/03/09 01:35:18;;;;;;;7.20;5.47;;;0.90;99.90;;;;;;4911448;29;20206;-83
2022/03/09 01:37:46;;;;;;;9.93;6.47;;;0.90;99.90;;;;;;4910424;29;20206;-82
2022/03/09 01:40:16;;;;;;;8.05;6.22;;;0.90;99.90;;;;;;4910275;29;20210;-82
2022/03/09 01:42:45;;;;;;;8.07;5.70;;;0.80;99.90;;;;;;4909422;29;20824;-82
2022/03/09 01:45:15;;;;;;;13.60;6.00;;;0.80;99.90;;;;;;4910086;29;20401;-84
2022/03/09 01:47:43;;;;;;;9.18;6.30;;;0.80;99.90;;;;;;4909514;29;20717;-82
2022/03/09 01:50:11;;;;;;;10.10;7.03;;;0.70;99.90;;;;;;4910226;29;20207;-83
2022/03/09 01:52:42;;;;;;;11.00;6.63;;;0.70;99.90;;;;;;4909651;29;20257;-83
2022/03/09 01:55:10;;;;;;;9.95;6.72;;;0.70;99.90;;;;;;4909215;29;20226;-82
2022/03/09 01:57:41;;;;;;;8.63;6.45;;;0.70;99.90;;;;;;4909115;29;20491;-82
2022/03/09 02:00:11;;;;;;;11.57;8.25;;;0.70;99.90;;;;;;4909969;29;20211;-82
2022/03/09 02:02:39;;;;;;;13.10;6.40;;;0.60;99.90;;;;;;4909660;29;20290;-82
2022/03/09 02:05:09;;;;;;;10.63;6.05;;;0.60;99.90;;;;;;4911204;29;20310;-83
2022/03/09 02:10:24;;;;;;;8.57;6.20;;;0.60;99.90;;;;;;4910167;29;20213;-83
2022/03/09 02:12:53;;;;;;;8.25;6.00;;;0.50;99.90;;;;;;4908627;29;20245;-83
2022/03/09 02:15:21;;;;;;;9.57;6.07;;;0.50;99.90;;;;;;4909400;29;20281;-81
2022/03/09 02:17:49;;;;;;;11.02;6.95;;;0.50;99.90;;;;;;4909613;29;20218;-83
2022/03/09 02:20:17;;;;;;;8.57;5.88;;;0.50;99.90;;;;;;4909667;29;20295;-83
2022/03/09 02:22:46;;;;;;;8.75;6.20;;;0.50;99.90;;;;;;4908585;29;20789;-81
2022/03/09 02:25:16;;;;;;;9.13;6.70;;;0.40;99.90;;;;;;4908727;29;20202;-82
2022/03/09 02:27:45;;;;;;;7.57;5.25;;;0.40;99.90;;;;;;4907427;29;20211;-83
2022/03/09 02:30:15;;;;;;;7.80;5.82;;;0.40;99.90;;;;;;4909013;29;20804;-83
2022/03/09 02:32:44;;;;;;;10.55;6.38;;;0.40;99.90;;;;;;4909406;29;20214;-82
2022/03/09 02:35:13;;;;;;;10.05;6.43;;;0.40;99.90;;;;;;4897312;29;20295;-84
2022/03/09 02:37:42;;;;;;;10.13;7.43;;;0.40;99.90;;;;;;4889895;29;20241;-82
2022/03/09 02:40:14;;;;;;;10.32;6.82;;;0.40;99.90;;;;;;4902627;29;20269;-82
2022/03/09 02:42:42;;;;;;;13.77;7.55;;;0.30;99.90;;;;;;4908776;29;20187;-83
2022/03/09 02:45:12;;;;;;;10.45;6.60;;;0.30;99.90;;;;;;4909391;29;20355;-81
2022/03/09 02:47:41;;;;;;;12.70;7.45;;;0.30;99.90;;;;;;4909840;29;20202;-84
2022/03/09 02:50:11;;;;;;;10.02;7.18;;;0.30;99.90;;;;;;4909887;29;20774;-83
2022/03/09 02:52:40;;;;;;;9.13;6.55;;;0.30;99.90;;;;;;4910584;29;20909;-83
2022/03/09 02:55:09;;;;;;;14.88;6.95;;;0.20;99.90;;;;;;4910846;29;20206;-83
2022/03/09 02:57:39;;;;;;;10.48;7.15;;;0.20;99.90;;;;;;4921579;29;20271;-84
2022/03/09 03:00:08;;;;;;;10.20;6.65;;;0.20;99.90;;;;;;4922714;29;20272;-82
2022/03/09 03:02:37;;;;;;;11.95;6.75;;;0.20;99.90;;;;;;4922839;29;20198;-83
2022/03/09 03:05:06;;;;;;;10.43;6.18;;;0.20;99.90;;;;;;4911231;29;20900;-83
2022/03/09 03:07:34;;;;;;;12.95;6.40;;;0.20;99.90;;;;;;4909839;29;20431;-83
2022/03/09 03:10:02;;;;;;;9.30;6.50;;;0.20;99.90;;;;;;4910214;29;20202;-82
2022/03/09 03:12:30;;;;;;;11.18;5.80;;;0.10;99.90;;;;;;4908001;29;20890;-81
2022/03/09 03:14:59;;;;;;;7.03;6.05;;;0.10;99.90;;;;;;4899255;29;20226;-84
2022/03/09 03:17:27;;;;;;;8.82;6.13;;;0.10;99.90;;;;;;4891315;29;20246;-84
2022/03/09 03:19:55;;;;;;;11.25;6.25;;;0.10;99.90;;;;;;4890412;29;20213;-82
2022/03/09 03:22:23;;;;;;;12.38;7.15;;;0.10;99.90;;;;;;4890262;29;20281;-81
2022/03/09 03:24:51;;;;;;;8.98;6.35;;;0.10;99.90;;;;;;4890471;29;20904;-84
2022/03/09 03:27:19;;;;;;;10.02;6.00;;;0.10;99.90;;;;;;4889697;29;20306;-83
2022/03/09 03:29:46;;;;;;;6.32;5.65;;;0.10;99.90;;;;;;4889943;29;20297;-81
2022/03/09 03:32:16;;;;;;;7.93;6.15;;;0.20;99.90;;;;;;4889625;29;20278;-83
2022/03/09 03:34:44;;;;;;;6.03;4.93;;;0.20;99.90;;;;;;4889902;29;20207;-82
2022/03/09 03:37:12;;;;;;;6.18;5.57;;;0.10;99.90;;;;;;4890377;29;20223;-83
2022/03/09 03:39:40;;;;;;;10.88;5.82;;;0.10;99.90;;;;;;4890711;29;20270;-83
2022/03/09 03:42:08;;;;;;;6.97;5.00;;;0.10;99.90;;;;;;4892392;29;20282;-84
2022/03/09 03:44:36;;;;;;;6.80;5.10;;;0.10;99.90;;;;;;4889653;29;20278;-81
2022/03/09 03:47:05;;;;;;;10.25;6.88;;;0.20;99.90;;;;;;4889524;29;20234;-82
2022/03/09 03:49:34;;;;;;;7.57;5.90;;;0.20;99.90;;;;;;4890575;29;20207;-83
2022/03/09 03:52:02;;;;;;;9.50;5.70;;;0.10;99.90;;;;;;4889855;29;20211;-82
2022/03/09 03:54:30;;;;;;;8.55;5.43;;;0.10;99.90;;;;;;4889675;29;20317;-83
2022/03/09 03:56:58;;;;;;;6.35;5.05;;;0.10;99.90;;;;;;4888616;29;20235;-81
2022/03/09 03:59:26;;;;;;;6.88;5.20;;;0.00;99.90;;;;;;4889515;29;20211;-83
2022/03/09 04:01:54;;;;;;;8.30;5.18;;;0.10;99.90;;;;;;4890482;29;20298;-84
2022/03/09 04:04:22;;;;;;;10.68;6.30;;;0.00;99.90;;;;;;4890088;29;20720;-82
2022/03/09 04:06:52;;;;;;;6.65;5.40;;;0.00;99.90;;;;;;4889385;29;20528;-83
2022/03/09 04:09:19;;;;;;;10.32;6.15;;;0.00;99.90;;;;;;4889839;29;20210;-84
2022/03/09 04:11:47;;;;;;;8.00;6.32;;;-0.10;99.90;;;;;;4889690;29;20209;-82
2022/03/09 04:14:15;;;;;;;8.13;5.25;;;-0.10;99.90;;;;;;4889306;29;20235;-80
2022/03/09 04:16:45;;;;;;;9.75;5.25;;;-0.10;99.90;;;;;;4890318;29;20844;-82
2022/03/09 04:19:13;;;;;;;7.93;5.68;;;-0.10;99.90;;;;;;4895977;29;20246;-81
2022/03/09 04:21:41;;;;;;;11.20;5.30;;;0.00;99.90;;;;;;4893748;29;20300;-83
2022/03/09 04:24:11;;;;;;;7.60;4.97;;;0.00;99.90;;;;;;4889212;29;20231;-83
2022/03/09 04:26:39;;;;;;;11.05;5.82;;;-0.10;99.90;;;;;;4890743;29;20254;-83
2022/03/09 04:29:07;;;;;;;7.97;6.10;;;-0.10;99.90;;;;;;4890579;29;20283;-83
2022/03/09 04:31:35;;;;;;;6.43;5.35;;;-0.10;99.90;;;;;;4891007;29;20755;-84
2022/03/09 04:34:05;;;;;;;7.50;5.68;;;-0.10;99.90;;;;;;4896189;29;20266;-84
2022/03/09 04:36:33;;;;;;;10.13;5.35;;;-0.10;99.90;;;;;;4889238;29;20242;-83
2022/03/09 04:39:01;;;;;;;8.77;5.53;;;-0.10;99.90;;;;;;4889041;29;20231;-83
2022/03/09 04:41:31;;;;;;;6.32;5.15;;;-0.10;99.90;;;;;;4889800;29;20291;-82
2022/03/09 04:44:05;;;;;;;7.13;5.03;;;-0.10;99.90;;;;;;4895298;29;20395;-82
2022/03/09 04:46:35;;;;;;;7.00;5.47;;;-0.20;99.90;;;;;;4893973;29;20238;-84
2022/03/09 04:49:03;;;;;;;8.80;5.55;;;-0.20;99.90;;;;;;4897243;29;20194;-82
2022/03/09 04:51:31;;;;;;;10.55;6.53;;;-0.20;99.90;;;;;;4896059;29;20246;-85
2022/03/09 04:53:59;;;;;;;9.80;5.65;;;-0.20;99.90;;;;;;4894634;29;20322;-84
2022/03/09 04:56:27;;;;;;;8.75;5.57;;;-0.30;99.90;;;;;;4890935;29;20224;-84
2022/03/09 04:58:56;;;;;;;6.03;5.35;;;-0.30;99.90;;;;;;4890774;29;20207;-84
2022/03/09 05:01:24;;;;;;;8.82;5.65;;;-0.30;99.90;;;;;;4896081;29;20219;-85
2022/03/09 05:03:52;;;;;;;9.48;5.45;;;-0.30;99.90;;;;;;4900679;29;20203;-84
2022/03/09 05:06:20;;;;;;;7.30;5.10;;;-0.30;99.90;;;;;;4895016;29;20699;-84
2022/03/09 05:08:48;;;;;;;8.18;5.45;;;-0.30;99.90;;;;;;4897647;29;20671;-84
2022/03/09 05:11:16;;;;;;;6.93;6.10;;;-0.30;99.90;;;;;;4895052;29;20271;-84
2022/03/09 05:13:44;;;;;;;7.60;5.90;;;-0.30;99.90;;;;;;4893839;29;20230;-83
2022/03/09 05:16:14;;;;;;;6.43;5.80;;;-0.40;99.90;;;;;;4893602;29;20231;-83
2022/03/09 05:18:43;;;;;;;5.97;5.03;;;-0.40;99.90;;;;;;4893477;29;20680;-84
2022/03/09 05:21:11;;;;;;;7.72;5.30;;;-0.40;99.90;;;;;;4893714;29;20873;-83
2022/03/09 05:23:39;;;;;;;6.63;5.78;;;-0.40;99.90;;;;;;4894808;29;20218;-83
2022/03/09 05:26:07;;;;;;;6.70;5.97;;;-0.40;99.90;;;;;;4907122;29;20235;-84
2022/03/09 05:28:38;;;;;;;12.15;6.13;;;-0.40;99.90;;;;;;4898353;29;20207;-85
2022/03/09 05:31:06;;;;;;;9.50;5.90;;;-0.40;99.90;;;;;;4893766;29;20209;-83
2022/03/09 05:33:36;;;;;;;10.95;6.00;;;-0.40;99.90;;;;;;4893323;29;20250;-86
2022/03/09 05:36:04;;;;;;;8.95;6.32;;;-0.40;99.90;;;;;;4892319;29;20231;-84
2022/03/09 05:38:33;;;;;;;5.53;5.03;;;-0.40;99.90;;;;;;4896811;29;20218;-85
2022/03/09 05:41:01;;;;;;;10.00;5.78;;;-0.40;99.90;;;;;;4892967;29;20210;-86
2022/03/09 05:43:29;;;;;;;9.82;5.47;;;-0.40;99.90;;;;;;4892400;29;20258;-84
2022/03/09 05:45:58;;;;;;;8.07;5.82;;;-0.50;99.90;;;;;;4893546;29;20219;-83
2022/03/09 05:48:26;;;;;;;9.38;5.68;;;-0.40;99.90;;;;;;4893390;29;20310;-85
2022/03/09 05:50:55;;;;;;;7.30;6.30;;;-0.50;99.90;;;;;;4893716;29;20294;-82
2022/03/09 05:53:23;;;;;;;7.35;5.78;;;-0.50;99.90;;;;;;4893174;29;20367;-84
2022/03/09 05:55:51;;;;;;;10.57;6.03;;;-0.50;99.90;;;;;;4892319;29;20888;-85
2022/03/09 05:58:19;;;;;;;10.25;6.25;;;-0.50;99.90;;;;;;4892179;29;20290;-84
2022/03/09 06:00:47;;;;;;;7.85;6.03;;;-0.50;99.90;;;;;;4907422;29;20234;-85
2022/03/09 06:03:15;;;;;;;9.88;5.65;;;-0.50;99.90;;;;;;4926330;29;20206;-83
2022/03/09 06:05:43;;;;;;;8.35;5.22;;;-0.50;99.90;;;;;;4931434;29;20230;-84
2022/03/09 06:08:13;;;;;;;9.00;6.15;;;-0.50;99.90;;;;;;4925382;29;20451;-84
2022/03/09 06:10:41;;;;;;;7.82;6.30;;;-0.50;99.90;;;;;;4910368;29;20281;-84
2022/03/09 06:13:09;;;;;;;10.63;7.70;;;-0.50;99.90;;;;;;4909743;29;20569;-84
2022/03/09 06:15:37;;;;;;;14.45;7.13;;;-0.50;99.90;;;;;;4913466;29;20847;-84
2022/03/09 06:18:05;;;;;;;6.88;5.20;;;-0.50;99.90;;;;;;4940889;29;20286;-83
2022/03/09 06:20:39;;;;;;;7.88;5.97;;;-0.40;99.90;;;;;;4945852;29;20273;-83
2022/03/09 06:24:07;;;;;;;12.02;6.40;;;-0.40;99.90;;;;;;4945855;29;20484;-85
2022/03/09 06:26:49;;;;;;;11.10;7.68;;;-0.40;99.90;;;;;;4929275;29;20293;-84
2022/03/09 06:29:24;;;;;;;12.77;7.22;;;-0.40;99.90;;;;;;4929849;29;20205;-83
2022/03/09 06:31:55;;;;;;;9.02;6.18;;;-0.30;99.90;;;;;;4940859;29;20182;-86
2022/03/09 06:34:25;;;;;;;16.05;7.25;;;-0.30;99.90;;;;;;4927634;29;20289;-86
2022/03/09 06:37:02;;;;;;;7.65;6.60;;;-0.20;99.90;;;;;;4910618;29;20229;-85
2022/03/09 06:39:31;;;;;;;9.30;6.80;;;-0.20;99.90;;;;;;4912115;29;20656;-84
2022/03/09 06:42:01;;;;;;;9.65;6.70;;;-0.10;99.90;;;;;;4912135;29;20225;-82
2022/03/09 06:44:35;;;;;;;9.02;6.10;;;-0.10;99.90;;;;;;4912154;29;20204;-85
2022/03/09 06:47:05;;;;;;;9.25;6.85;;;0.00;99.90;;;;;;4911540;29;20230;-83
2022/03/09 06:49:33;;;;;;;9.43;6.85;;;0.10;99.90;;;;;;4910973;29;20289;-85
2022/03/09 06:52:01;;;;;;;10.90;6.30;;;0.10;99.90;;;;;;4909929;29;20214;-85
2022/03/09 06:54:29;;;;;;;10.63;6.63;;;0.10;99.90;;;;;;4909919;29;20271;-85
2022/03/09 06:57:13;;;;;;;9.07;6.45;;;0.20;99.90;;;;;;4911045;29;20254;-85
2022/03/09 06:59:46;;;;;;;9.55;6.82;;;0.30;99.90;;;;;;4910455;29;20213;-83
2022/03/09 07:02:15;;;;;;;12.00;7.15;;;0.40;99.90;;;;;;4910848;29;20222;-87
2022/03/09 07:04:45;;;;;;;15.93;7.65;;;0.50;99.90;;;;;;4910703;29;20199;-85
2022/03/09 07:07:18;;;;;;;11.05;6.80;;;0.60;99.90;;;;;;4911431;29;20222;-87
2022/03/09 07:09:46;;;;;;;11.90;7.05;;;0.80;99.90;;;;;;4891249;29;20379;-83
2022/03/09 07:12:16;;;;;;;10.00;7.70;;;1.00;99.90;;;;;;4892582;29;20207;-85
2022/03/09 07:14:44;;;;;;;10.95;7.45;;;1.10;99.90;;;;;;4891930;29;20225;-84
2022/03/09 07:17:12;;;;;;;10.60;6.80;;;1.20;99.90;;;;;;4891281;29;20334;-84
2022/03/09 07:19:43;;;;;;;10.60;7.60;;;1.20;99.90;;;;;;4891977;29;20239;-85
2022/03/09 07:22:11;;;;;;;12.00;7.82;;;1.30;99.90;;;;;;4890422;29;20222;-84
2022/03/09 07:24:41;;;;;;;12.73;7.30;;;1.40;99.90;;;;;;4890295;29;20207;-86
2022/03/09 07:27:09;;;;;;;8.70;6.85;;;1.40;99.90;;;;;;4890307;29;20924;-85
2022/03/09 07:29:38;;;;;;;8.55;6.90;;;1.50;99.90;;;;;;4889361;29;20213;-84
2022/03/09 07:32:08;;;;;;;13.02;8.40;;;1.50;99.90;;;;;;4895464;29;20199;-86
2022/03/09 07:34:36;;;;;;;15.90;9.20;;;1.60;99.90;;;;;;4890472;29;20314;-85
2022/03/09 07:37:04;;;;;;;10.90;7.68;;;1.60;99.90;;;;;;4891832;29;20233;-85
2022/03/09 07:39:33;;;;;;;12.88;7.20;;;1.70;99.90;;;;;;4897439;29;20221;-84
2022/03/09 07:42:02;;;;;;;11.20;7.32;;;1.80;99.90;;;;;;4894218;29;20298;-83
2022/03/09 07:44:37;;;;;;;10.88;7.18;;;1.80;99.90;;;;;;4896603;29;20229;-83
2022/03/09 07:47:06;;;;;;;8.07;7.20;;;2.00;99.90;;;;;;4890803;29;20897;-85
2022/03/09 07:49:34;;;;;;;8.30;6.15;;;2.00;99.90;;;;;;4892118;29;20207;-86
2022/03/09 07:52:06;;;;;;;9.70;6.65;;;2.10;99.90;;;;;;4891182;29;20283;-85
2022/03/09 07:54:34;;;;;;;7.45;5.55;;;2.10;99.90;;;;;;4890292;29;20252;-84
2022/03/09 07:57:04;;;;;;;7.22;5.72;;;2.20;99.90;;;;;;4892440;29;20231;-85
2022/03/09 07:59:32;;;;;;;8.77;6.32;;;2.30;99.90;;;;;;4891229;29;20243;-86
2022/03/09 08:02:01;;;;;;;8.43;6.03;;;2.40;99.90;;;;;;4892530;29;20290;-84
2022/03/09 08:04:29;;;;;;;8.35;6.45;;;2.50;99.90;;;;;;4891487;29;20235;-85
2022/03/09 08:06:57;;;;;;;8.77;5.65;;;2.60;99.90;;;;;;4891800;29;20215;-84
2022/03/09 08:09:25;;;;;;;7.55;5.60;;;2.70;99.90;;;;;;4927088;29;20205;-85
2022/03/09 08:11:53;;;;;;;7.35;5.75;;;2.90;99.90;;;;;;4930873;29;20216;-86
2022/03/09 08:14:21;;;;;;;7.60;5.22;;;2.90;99.90;;;;;;4929829;29;20388;-84
2022/03/09 08:16:50;;;;;;;8.30;6.65;;;3.00;99.90;;;;;;4929874;29;20229;-83
2022/03/09 08:19:19;;;;;;;10.80;5.80;;;3.10;99.90;;;;;;4929703;29;20273;-84
2022/03/09 08:21:49;;;;;;;6.88;4.88;;;3.20;99.90;;;;;;4931512;29;20276;-82
2022/03/09 08:24:17;;;;;;;5.63;5.07;;;3.30;99.90;;;;;;4926358;29;20214;-84
2022/03/09 08:26:45;;;;;;;5.50;5.00;;;3.40;99.90;;;;;;4909586;29;20293;-82
2022/03/09 08:29:13;;;;;;;5.85;5.25;;;3.50;99.90;;;;;;4910223;29;20265;-85
2022/03/09 08:31:41;;;;;;;8.23;5.80;;;3.60;99.90;;;;;;4909438;29;20311;-85
2022/03/09 08:34:09;;;;;;;6.47;4.80;;;3.70;99.90;;;;;;4909531;29;20269;-84
2022/03/09 08:36:39;;;;;;;5.88;4.50;;;3.80;99.90;;;;;;4913751;29;20320;-86
2022/03/09 08:39:06;;;;;;;5.15;4.65;;;3.90;99.90;;;;;;4914368;29;20633;-85
2022/03/09 08:41:35;;;;;;;8.55;5.10;;;4.00;99.90;;;;;;4914611;29;20206;-85
2022/03/09 08:44:15;;;;;;;5.95;4.38;;;4.10;99.90;;;;;;4912937;29;20218;-83
2022/03/09 08:56:22;;;;;;;6.45;5.65;;;4.60;99.90;;;;;;4838551;29;20244;-84
2022/03/09 08:59:48;;;;;;;;;;;;;;;;;;;;;
2022/03/09 09:03:08;;;;;;;5.05;4.55;;;4.80;99.90;;;;;;4834971;29;21018;-85
2022/03/09 09:05:52;;;;;;;7.90;4.90;;;4.90;99.90;;;;;;4831358;29;20257;-85
2022/03/09 09:08:20;;;;;;;5.07;4.18;;;5.10;99.90;;;;;;4835239;29;20347;-86
2022/03/09 09:10:54;;;;;;;7.93;4.07;;;5.20;99.90;;;;;;4837612;29;20866;-84
2022/03/09 09:13:22;;;;;;;5.78;4.10;;;5.30;99.90;;;;;;4840081;29;20280;-84
2022/03/09 09:15:52;;;;;;;7.65;4.70;;;5.40;99.90;;;;;;4834346;29;20225;-82
2022/03/09 09:18:22;;;;;;;6.07;4.55;;;5.50;99.90;;;;;;4834885;29;20251;-83
2022/03/09 09:20:56;;;;;;;5.68;4.32;;;5.60;99.90;;;;;;4837406;29;20209;-84
2022/03/09 09:23:26;;;;;;;5.65;5.00;;;5.70;99.90;;;;;;4839805;29;20496;-82
2022/03/09 09:25:55;;;;;;;4.30;3.90;;;5.80;99.90;;;;;;4835553;29;20894;-84
2022/03/09 09:28:24;;;;;;;5.78;4.50;;;6.00;99.90;;;;;;4911399;29;20392;-83
2022/03/09 09:30:54;;;;;;;5.80;4.38;;;6.00;99.90;;;;;;4914515;29;20207;-82
2022/03/09 09:33:22;;;;;;;5.85;4.80;;;6.10;99.90;;;;;;4912706;29;20254;-85
2022/03/09 09:35:51;;;;;;;5.13;4.13;;;6.20;99.90;;;;;;4912235;29;20264;-84
2022/03/09 09:38:19;;;;;;;5.13;4.40;;;6.30;99.90;;;;;;4912939;29;20217;-84
2022/03/09 09:40:51;;;;;;;5.57;4.45;;;6.40;99.90;;;;;;4913398;29;20199;-84
2022/03/09 09:43:22;;;;;;;4.95;4.43;;;6.50;99.90;;;;;;4912475;29;20190;-84
2022/03/09 09:45:57;;;;;;;4.53;4.13;;;6.60;99.90;;;;;;4914157;29;20278;-85
2022/03/09 09:48:27;;;;;;;6.25;4.10;;;6.60;99.90;;;;;;4915165;29;20757;-85
2022/03/09 09:51:00;;;;;;;5.40;4.88;;;6.80;99.90;;;;;;4925829;28;20179;-83
2022/03/09 09:53:31;;;;;;;5.22;4.45;;;6.90;99.90;;;;;;4918819;29;20205;-85
2022/03/09 09:56:05;;;;;;;6.15;5.00;;;6.90;99.90;;;;;;4913734;29;20313;-83
2022/03/09 09:58:35;;;;;;;5.28;4.78;;;7.00;99.90;;;;;;4913705;29;20206;-85
2022/03/09 10:01:03;;;;;;;6.90;4.90;;;7.10;99.90;;;;;;4919231;29;20213;-85
2022/03/09 10:03:34;;;;;;;6.38;4.13;;;7.10;99.90;;;;;;4928776;29;20191;-82
2022/03/09 10:06:04;;;;;;;6.30;5.38;;;7.20;99.90;;;;;;4920237;29;20248;-81
2022/03/09 10:08:38;;;;;;;5.35;4.47;;;7.20;99.90;;;;;;4930724;29;20372;-82
2022/03/09 10:11:21;;;;;;;7.50;6.18;;;7.30;99.90;;;;;;4939321;29;20407;-83
2022/03/09 10:17:04;;;;;;;10.73;5.32;;;7.60;99.90;;;;;;4933039;29;20654;-85
2022/03/09 10:19:51;;;;;;;5.78;4.50;;;7.80;99.90;;;;;;4920194;29;20199;-83
2022/03/09 10:22:49;;;;;;;5.70;5.10;;;7.90;99.90;;;;;;4921341;29;20213;-85
2022/03/09 10:39:12;;;;;;;7.20;4.95;;;8.30;99.90;;;;;;4858110;29;20215;-81
2022/03/09 10:41:43;;;;;;;8.32;5.22;;;8.40;99.90;;;;;;4858845;29;20212;-83
2022/03/09 10:48:07;;;;;;;5.90;4.50;;;8.60;99.90;;;;;;4848313;29;20258;-82
2022/03/09 10:50:55;;;;;;;5.50;5.03;;;8.70;99.90;;;;;;4876458;29;20391;-83
2022/03/09 10:53:46;;;;;;;6.40;4.90;;;8.80;99.90;;;;;;4894943;29;20672;-83
2022/03/09 10:56:21;;;;;;;5.53;4.00;;;8.80;99.90;;;;;;4895752;29;20231;-85
2022/03/09 10:58:52;;;;;;;10.50;5.35;;;8.90;99.90;;;;;;4887790;29;20211;-85
2022/03/09 11:01:21;;;;;;;6.20;5.60;;;9.00;99.90;;;;;;4884444;29;20883;-83
2022/03/09 11:03:49;;;;;;;7.85;5.20;;;9.10;99.90;;;;;;4895508;29;20239;-82
2022/03/09 11:06:18;;;;;;;7.10;5.68;;;9.20;99.90;;;;;;4906921;29;20207;-83
2022/03/09 11:08:50;;;;;;;6.75;5.60;;;9.30;99.90;;;;;;4904273;29;20293;-86
2022/03/09 11:11:21;;;;;;;6.07;5.38;;;9.30;99.90;;;;;;4901459;29;20760;-83
2022/03/09 11:13:49;;;;;;;6.38;5.22;;;9.30;99.90;;;;;;4901505;29;20281;-84
2022/03/09 11:16:18;;;;;;;6.40;5.60;;;9.40;99.90;;;;;;4900667;29;20219;-84
2022/03/09 11:18:47;;;;;;;8.82;5.60;;;9.50;99.90;;;;;;4902067;29;20215;-85
2022/03/09 11:21:18;;;;;;;5.90;5.30;;;9.50;99.90;;;;;;4901316;29;20226;-85
2022/03/09 11:23:48;;;;;;;5.68;5.10;;;9.60;99.90;;;;;;4899050;29;20206;-85
2022/03/09 11:26:21;;;;;;;6.40;5.80;;;9.70;99.90;;;;;;4898655;29;20215;-85
2022/03/09 11:28:59;;;;;;;6.63;5.47;;;9.80;99.90;;;;;;4903205;29;20342;-85
2022/03/09 11:38:53;;;;;;;;;;;;;;;;;;;;;
2022/03/09 11:42:37;;;;;;;6.97;5.45;;;10.00;99.10;;;;;;4910421;29;20450;-82
2022/03/09 11:45:30;;;;;;;8.10;5.15;;;10.10;99.10;;;;;;4912507;29;20289;-85
2022/03/09 11:48:56;;;;;;;7.32;6.25;;;10.10;99.10;;;;;;4911831;29;20206;-88
2022/03/09 12:00:12;;;;;;;5.60;5.00;;;10.30;98.40;;;;;;4752898;29;20238;-84
2022/03/09 12:10:17;;;;;;;7.73;5.00;;;10.40;97.80;;;;;;4649014;30;20451;-84
2022/03/09 12:24:33;;;;;;;6.77;5.73;;;10.70;97.40;;;;;;4704264;30;20700;-84
2022/03/09 12:27:32;;;;;;;5.88;5.05;;;10.70;96.80;;;;;;4775863;30;21009;-83
2022/03/09 12:34:00;;;;;;;5.63;5.10;;;10.80;96.60;;;;;;4717841;30;20443;-85
2022/03/09 12:37:35;;;;;;;5.83;4.90;;;10.80;96.40;;;;;;4784414;29;20837;-84
2022/03/09 12:48:58;;;;;;;6.20;5.17;;;10.90;96.20;;;;;;4694266;30;21255;-85
2022/03/09 13:45:54;;;;;;;5.40;4.90;;;11.40;94.70;;;;;;4668464;23;20540;-70
2022/03/09 13:48:25;;;;;;;4.93;3.90;;;11.40;93.90;;;;;;4943583;29;20532;-71
2022/03/09 13:51:01;;;;;;;5.40;5.00;;;11.30;93.30;;;;;;4942534;28;20452;-70
2022/03/09 13:53:33;;;;;;;4.97;4.57;;;11.40;93.40;;;;;;4943186;29;20448;-72
2022/03/09 13:56:02;;;;;;;5.67;5.10;;;11.50;92.90;;;;;;4943254;29;20447;-71
2022/03/09 13:58:41;;;;;;;6.90;5.77;;;11.50;92.50;;;;;;4942276;29;20508;-70
2022/03/09 14:01:12;;;;;;;6.63;5.40;;;11.50;93.20;;;;;;4942027;28;20555;-69
2022/03/09 14:03:41;;;;;;;6.50;5.27;;;11.50;93.60;;;;;;4942636;29;20469;-69
2022/03/09 14:06:14;;;;;;;8.10;5.60;;;11.50;93.60;;;;;;4943423;29;20523;-72
2022/03/09 14:08:43;;;;;;;8.13;5.73;;;11.50;93.70;;;;;;4942877;29;20455;-70
2022/03/09 14:11:14;;;;;;;8.07;5.13;;;11.60;93.60;;;;;;4942357;28;20448;-68
2022/03/09 14:14:01;;;;;;;8.67;5.90;;;11.60;93.30;;;;;;4942067;29;20523;-72
2022/03/09 14:16:33;;;;;;;6.20;5.60;;;11.50;93.20;;;;;;4942157;29;20767;-69
2022/03/09 14:19:04;;;;;;;6.63;5.27;;;11.50;93.80;;;;;;4938880;29;20503;-69
2022/03/09 14:21:32;;;;;;;7.60;6.13;;;11.50;93.30;;;;;;4941566;28;20572;-69
2022/03/09 14:24:01;;;;;;;7.27;5.40;;;11.50;93.30;;;;;;4934677;29;21188;-69
2022/03/09 14:26:31;;;;;;;6.30;5.47;;;11.50;93.40;;;;;;4924443;28;20719;-68
2022/03/09 14:28:59;;;;;;;8.57;6.00;;;11.50;93.80;;;;;;4923532;29;20448;-70
2022/03/09 14:31:28;;;;;;;5.93;5.30;;;11.50;93.70;;;;;;4922859;29;20448;-69
2022/03/09 14:33:57;;;;;;;5.50;5.00;;;11.50;94.00;;;;;;4920236;29;20448;-72
2022/03/09 14:36:26;;;;;;;6.10;5.50;;;11.50;93.50;;;;;;4937301;29;20986;-72
2022/03/09 14:38:55;;;;;;;6.40;5.77;;;11.60;93.60;;;;;;4943582;29;20484;-72
2022/03/09 14:41:24;;;;;;;6.90;6.30;;;11.60;93.80;;;;;;4942872;28;20465;-69
2022/03/09 14:43:52;;;;;;;6.03;5.53;;;11.50;93.40;;;;;;4943170;29;20449;-69
2022/03/09 14:46:21;;;;;;;5.90;5.30;;;11.60;93.50;;;;;;4940952;29;20955;-69
2022/03/09 14:48:54;;;;;;;6.27;5.50;;;11.50;94.00;;;;;;4942578;29;20914;-69
2022/03/09 14:51:24;;;;;;;6.67;5.87;;;11.50;93.80;;;;;;4942269;29;20443;-69
2022/03/09 14:53:52;;;;;;;5.80;5.30;;;11.50;94.00;;;;;;4942552;29;20486;-68
2022/03/09 14:56:21;;;;;;;5.30;4.80;;;11.50;94.10;;;;;;4942674;29;20531;-70
2022/03/09 14:58:51;;;;;;;7.53;5.87;;;11.40;94.10;;;;;;4941583;28;20539;-69
2022/03/09 15:01:19;;;;;;;6.60;6.00;;;11.40;93.90;;;;;;4942602;28;20453;-72
2022/03/09 15:03:53;;;;;;;6.77;6.07;;;11.40;94.10;;;;;;4941891;29;20464;-72
2022/03/09 15:06:26;;;;;;;6.63;6.03;;;11.40;94.30;;;;;;4944838;29;21161;-71
2022/03/09 15:08:54;;;;;;;8.07;6.13;;;11.40;94.80;;;;;;4943668;29;20545;-68
2022/03/09 15:11:23;;;;;;;6.40;5.73;;;11.30;94.70;;;;;;4944107;29;21003;-68
2022/03/09 15:13:51;;;;;;;6.00;5.40;;;11.30;94.70;;;;;;4944040;29;20449;-69
2022/03/09 15:16:19;;;;;;;7.23;6.53;;;11.30;94.60;;;;;;4942465;29;21102;-67
2022/03/09 15:18:53;;;;;;;6.87;6.13;;;11.30;94.80;;;;;;4943266;28;20483;-73
2022/03/09 15:21:21;;;;;;;6.43;5.83;;;11.30;95.30;;;;;;4942586;29;20536;-71
2022/03/09 15:23:50;;;;;;;5.73;5.23;;;11.30;95.40;;;;;;4942930;28;20995;-71
2022/03/09 15:26:20;;;;;;;6.50;5.80;;;11.30;95.30;;;;;;4943181;29;20499;-70
2022/03/09 15:28:48;;;;;;;6.47;5.87;;;11.30;95.30;;;;;;4943952;29;20523;-71